sensor_id;sensor_type;location;lat;lon;timestamp;pressure;altitude;pressure_sealevel;temperature;humidity
66801;BME280;53703;50.326;19.122;2023-02-11T00:00:10;100304.98;;;17.34;38.25
66801;BME280;53703;50.326;19.122;2023-02-11T00:03:24;100305.52;;;17.25;38.58
66801;BME280;53703;50.326;19.122;2023-02-11T00:06:18;100301.08;;;17.27;38.62
66801;BME280;53703;50.326;19.122;2023-02-11T00:09:12;100300.73;;;17.27;38.53
66801;BME280;53703;50.326;19.122;2023-02-11T00:12:07;100296.80;;;17.25;38.53
66801;BME280;53703;50.326;19.122;2023-02-11T00:15:00;100296.23;;;17.24;38.53
66801;BME280;53703;50.326;19.122;2023-02-11T00:17:54;100293.15;;;17.28;38.46
66801;BME280;53703;50.326;19.122;2023-02-11T00:20:48;100294.55;;;17.25;38.44
66801;BME280;53703;50.326;19.122;2023-02-11T00:23:42;100287.25;;;17.28;38.30
66801;BME280;53703;50.326;19.122;2023-02-11T00:26:37;100279.83;;;17.27;38.14
66801;BME280;53703;50.326;19.122;2023-02-11T00:29:30;100278.14;;;17.26;38.17
66801;BME280;53703;50.326;19.122;2023-02-11T00:32:24;100273.77;;;17.27;38.16
66801;BME280;53703;50.326;19.122;2023-02-11T00:35:18;100271.94;;;17.27;38.40
66801;BME280;53703;50.326;19.122;2023-02-11T00:38:12;100264.27;;;17.26;38.33
66801;BME280;53703;50.326;19.122;2023-02-11T00:41:06;100264.31;;;17.18;38.35
66801;BME280;53703;50.326;19.122;2023-02-11T00:43:59;100266.33;;;17.19;38.49
66801;BME280;53703;50.326;19.122;2023-02-11T00:46:53;100261.70;;;17.22;38.31
66801;BME280;53703;50.326;19.122;2023-02-11T00:49:47;100254.10;;;17.18;38.37
66801;BME280;53703;50.326;19.122;2023-02-11T00:52:41;100241.95;;;17.16;38.25
66801;BME280;53703;50.326;19.122;2023-02-11T00:55:35;100239.42;;;17.16;38.37
66801;BME280;53703;50.326;19.122;2023-02-11T00:58:29;100230.36;;;17.16;38.16
66801;BME280;53703;50.326;19.122;2023-02-11T01:01:23;100218.88;;;17.17;38.06
66801;BME280;53703;50.326;19.122;2023-02-11T01:04:16;100206.04;;;17.10;38.35
66801;BME280;53703;50.326;19.122;2023-02-11T01:07:10;100196.65;;;17.14;38.24
66801;BME280;53703;50.326;19.122;2023-02-11T01:10:04;100200.11;;;17.14;38.24
66801;BME280;53703;50.326;19.122;2023-02-11T01:12:58;100190.36;;;17.08;38.15
66801;BME280;53703;50.326;19.122;2023-02-11T01:15:53;100173.55;;;17.12;38.13
66801;BME280;53703;50.326;19.122;2023-02-11T01:18:47;100152.09;;;17.09;38.23
66801;BME280;53703;50.326;19.122;2023-02-11T01:21:40;100147.45;;;17.04;38.30
66801;BME280;53703;50.326;19.122;2023-02-11T01:24:34;100157.27;;;17.07;38.18
66801;BME280;53703;50.326;19.122;2023-02-11T01:27:28;100156.59;;;17.08;38.29
66801;BME280;53703;50.326;19.122;2023-02-11T01:30:21;100177.49;;;17.05;38.20
66801;BME280;53703;50.326;19.122;2023-02-11T01:33:15;100183.84;;;17.08;38.07
66801;BME280;53703;50.326;19.122;2023-02-11T01:36:11;100179.68;;;17.03;38.25
66801;BME280;53703;50.326;19.122;2023-02-11T01:39:05;100174.91;;;17.00;38.22
66801;BME280;53703;50.326;19.122;2023-02-11T01:41:59;100174.27;;;16.96;38.40
66801;BME280;53703;50.326;19.122;2023-02-11T01:44:55;100168.23;;;16.92;38.42
66801;BME280;53703;50.326;19.122;2023-02-11T01:47:49;100165.79;;;16.95;38.29
66801;BME280;53703;50.326;19.122;2023-02-11T01:50:43;100158.30;;;16.95;38.33
66801;BME280;53703;50.326;19.122;2023-02-11T01:53:39;100164.30;;;16.93;38.26
66801;BME280;53703;50.326;19.122;2023-02-11T01:56:53;100152.14;;;16.94;38.25
66801;BME280;53703;50.326;19.122;2023-02-11T02:00:12;100157.92;;;16.89;38.41
66801;BME280;53703;50.326;19.122;2023-02-11T02:03:11;100160.55;;;16.90;38.26
66801;BME280;53703;50.326;19.122;2023-02-11T02:06:11;100155.23;;;16.91;38.23
66801;BME280;53703;50.326;19.122;2023-02-11T02:09:14;100156.02;;;16.87;38.30
66801;BME280;53703;50.326;19.122;2023-02-11T02:12:09;100153.77;;;16.86;38.18
66801;BME280;53703;50.326;19.122;2023-02-11T02:15:25;100145.52;;;16.83;38.38
66801;BME280;53703;50.326;19.122;2023-02-11T02:18:21;100122.46;;;16.83;38.30
66801;BME280;53703;50.326;19.122;2023-02-11T02:21:55;100114.22;;;16.85;38.27
66801;BME280;53703;50.326;19.122;2023-02-11T02:25:09;100110.33;;;16.83;38.23
66801;BME280;53703;50.326;19.122;2023-02-11T02:28:28;100100.41;;;16.83;38.38
66801;BME280;53703;50.326;19.122;2023-02-11T02:31:42;100087.29;;;16.77;38.40
66801;BME280;53703;50.326;19.122;2023-02-11T02:34:50;100084.23;;;16.79;38.31
66801;BME280;53703;50.326;19.122;2023-02-11T02:37:55;100080.98;;;16.78;38.37
66801;BME280;53703;50.326;19.122;2023-02-11T02:40:53;100079.02;;;16.80;38.20
66801;BME280;53703;50.326;19.122;2023-02-11T02:43:51;100071.18;;;16.80;38.22
66801;BME280;53703;50.326;19.122;2023-02-11T02:46:46;100057.96;;;16.77;38.15
66801;BME280;53703;50.326;19.122;2023-02-11T02:49:40;100042.86;;;16.71;38.44
66801;BME280;53703;50.326;19.122;2023-02-11T02:52:44;100033.52;;;16.69;38.41
66801;BME280;53703;50.326;19.122;2023-02-11T02:55:53;100034.25;;;16.70;38.36
66801;BME280;53703;50.326;19.122;2023-02-11T02:59:12;100027.19;;;16.71;38.35
66801;BME280;53703;50.326;19.122;2023-02-11T03:02:19;100019.83;;;16.67;38.37
66801;BME280;53703;50.326;19.122;2023-02-11T03:05:20;100017.98;;;16.69;38.27
66801;BME280;53703;50.326;19.122;2023-02-11T03:08:20;100017.81;;;16.67;38.39
66801;BME280;53703;50.326;19.122;2023-02-11T03:11:18;100007.49;;;16.64;38.48
66801;BME280;53703;50.326;19.122;2023-02-11T03:14:17;100017.08;;;16.65;38.48
66801;BME280;53703;50.326;19.122;2023-02-11T03:17:11;100017.45;;;16.63;38.50
66801;BME280;53703;50.326;19.122;2023-02-11T03:20:11;100024.81;;;16.64;38.53
66801;BME280;53703;50.326;19.122;2023-02-11T03:23:11;100027.11;;;16.61;38.44
66801;BME280;53703;50.326;19.122;2023-02-11T03:26:16;100026.30;;;16.61;38.52
66801;BME280;53703;50.326;19.122;2023-02-11T03:29:17;100022.01;;;16.61;38.39
66801;BME280;53703;50.326;19.122;2023-02-11T03:32:20;100012.02;;;16.59;38.36
66801;BME280;53703;50.326;19.122;2023-02-11T03:35:20;100013.38;;;16.56;38.47
66801;BME280;53703;50.326;19.122;2023-02-11T03:38:18;100000.54;;;16.59;38.36
66801;BME280;53703;50.326;19.122;2023-02-11T03:41:16;100004.52;;;16.53;38.55
66801;BME280;53703;50.326;19.122;2023-02-11T03:44:11;100001.32;;;16.51;38.41
66801;BME280;53703;50.326;19.122;2023-02-11T03:47:08;99997.63;;;16.51;38.50
66801;BME280;53703;50.326;19.122;2023-02-11T03:50:05;99987.24;;;16.52;38.30
66801;BME280;53703;50.326;19.122;2023-02-11T03:53:01;99971.23;;;16.51;38.27
66801;BME280;53703;50.326;19.122;2023-02-11T03:56:00;99966.85;;;16.46;38.53
66801;BME280;53703;50.326;19.122;2023-02-11T03:58:55;99955.35;;;16.45;38.33
66801;BME280;53703;50.326;19.122;2023-02-11T04:01:49;99943.22;;;16.42;38.44
66801;BME280;53703;50.326;19.122;2023-02-11T04:04:43;99935.10;;;16.40;38.45
66801;BME280;53703;50.326;19.122;2023-02-11T04:07:37;99926.20;;;16.39;38.41
66801;BME280;53703;50.326;19.122;2023-02-11T04:10:31;99919.54;;;16.39;38.22
66801;BME280;53703;50.326;19.122;2023-02-11T04:13:26;99916.26;;;16.33;38.57
66801;BME280;53703;50.326;19.122;2023-02-11T04:16:19;99910.26;;;16.33;38.52
66801;BME280;53703;50.326;19.122;2023-02-11T04:19:13;99908.35;;;16.32;38.51
66801;BME280;53703;50.326;19.122;2023-02-11T04:22:07;99905.31;;;16.29;38.63
66801;BME280;53703;50.326;19.122;2023-02-11T04:25:01;99898.36;;;16.27;38.62
66801;BME280;53703;50.326;19.122;2023-02-11T04:27:55;99899.29;;;16.28;38.50
66801;BME280;53703;50.326;19.122;2023-02-11T04:30:51;99897.79;;;16.26;38.57
66801;BME280;53703;50.326;19.122;2023-02-11T04:33:36;99899.89;;;16.25;38.56
66801;BME280;53703;50.326;19.122;2023-02-11T04:36:29;99901.84;;;16.27;38.57
66801;BME280;53703;50.326;19.122;2023-02-11T04:39:23;99912.94;;;16.23;38.46
66801;BME280;53703;50.326;19.122;2023-02-11T04:42:17;99923.30;;;16.23;38.59
66801;BME280;53703;50.326;19.122;2023-02-11T04:45:11;99914.42;;;16.20;38.41
66801;BME280;53703;50.326;19.122;2023-02-11T04:48:05;99914.34;;;16.18;38.58
66801;BME280;53703;50.326;19.122;2023-02-11T04:50:59;99911.71;;;16.17;38.51
66801;BME280;53703;50.326;19.122;2023-02-11T04:53:53;99900.42;;;16.20;38.38
66801;BME280;53703;50.326;19.122;2023-02-11T04:56:47;99899.40;;;16.16;38.58
66801;BME280;53703;50.326;19.122;2023-02-11T04:59:42;99904.05;;;16.12;38.64
66801;BME280;53703;50.326;19.122;2023-02-11T05:02:36;99905.96;;;16.10;38.56
66801;BME280;53703;50.326;19.122;2023-02-11T05:05:31;99891.78;;;16.09;38.60
66801;BME280;53703;50.326;19.122;2023-02-11T05:08:25;99890.17;;;16.07;38.59
66801;BME280;53703;50.326;19.122;2023-02-11T05:11:21;99891.29;;;16.06;38.59
66801;BME280;53703;50.326;19.122;2023-02-11T05:14:15;99893.20;;;16.03;38.68
66801;BME280;53703;50.326;19.122;2023-02-11T05:17:09;99892.01;;;16.00;38.64
66801;BME280;53703;50.326;19.122;2023-02-11T05:20:04;99890.80;;;16.03;38.65
66801;BME280;53703;50.326;19.122;2023-02-11T05:22:57;99888.37;;;16.03;38.62
66801;BME280;53703;50.326;19.122;2023-02-11T05:25:51;99896.31;;;16.00;38.75
66801;BME280;53703;50.326;19.122;2023-02-11T05:28:45;99908.80;;;16.01;38.63
66801;BME280;53703;50.326;19.122;2023-02-11T05:31:39;99913.21;;;16.00;38.64
66801;BME280;53703;50.326;19.122;2023-02-11T05:34:32;99908.27;;;15.96;38.69
66801;BME280;53703;50.326;19.122;2023-02-11T05:37:26;99906.17;;;15.96;38.73
66801;BME280;53703;50.326;19.122;2023-02-11T05:40:21;99907.48;;;15.93;38.76
66801;BME280;53703;50.326;19.122;2023-02-11T05:43:14;99905.98;;;15.96;38.67
66801;BME280;53703;50.326;19.122;2023-02-11T05:46:08;99900.34;;;15.89;38.78
66801;BME280;53703;50.326;19.122;2023-02-11T05:49:02;99880.66;;;15.87;38.74
66801;BME280;53703;50.326;19.122;2023-02-11T05:51:56;99855.29;;;15.87;38.71
66801;BME280;53703;50.326;19.122;2023-02-11T05:54:50;99855.48;;;15.85;38.85
66801;BME280;53703;50.326;19.122;2023-02-11T05:57:43;99860.71;;;15.85;38.86
66801;BME280;53703;50.326;19.122;2023-02-11T06:00:37;99861.21;;;15.82;38.99
66801;BME280;53703;50.326;19.122;2023-02-11T06:03:31;99855.48;;;15.82;38.90
66801;BME280;53703;50.326;19.122;2023-02-11T06:06:25;99846.69;;;15.84;39.14
66801;BME280;53703;50.326;19.122;2023-02-11T06:09:19;99837.44;;;15.87;38.77
66801;BME280;53703;50.326;19.122;2023-02-11T06:12:13;99834.67;;;15.86;38.98
66801;BME280;53703;50.326;19.122;2023-02-11T06:15:08;99838.13;;;15.77;38.94
66801;BME280;53703;50.326;19.122;2023-02-11T06:18:02;99845.67;;;15.77;39.74
66801;BME280;53703;50.326;19.122;2023-02-11T06:20:55;99848.25;;;15.60;40.03
66801;BME280;53703;50.326;19.122;2023-02-11T06:23:49;99834.33;;;15.54;40.19
66801;BME280;53703;50.326;19.122;2023-02-11T06:26:43;99832.02;;;15.57;40.30
66801;BME280;53703;50.326;19.122;2023-02-11T06:29:37;99811.75;;;15.53;40.29
66801;BME280;53703;50.326;19.122;2023-02-11T06:32:30;99806.09;;;15.49;40.52
66801;BME280;53703;50.326;19.122;2023-02-11T06:35:38;99803.27;;;15.72;40.36
66801;BME280;53703;50.326;19.122;2023-02-11T06:38:32;99803.20;;;15.59;40.54
66801;BME280;53703;50.326;19.122;2023-02-11T06:41:25;99804.38;;;15.52;40.42
66801;BME280;53703;50.326;19.122;2023-02-11T06:44:19;99814.55;;;15.50;40.44
66801;BME280;53703;50.326;19.122;2023-02-11T06:47:13;99816.11;;;15.48;40.37
66801;BME280;53703;50.326;19.122;2023-02-11T06:49:52;99821.15;;;15.47;40.37
66801;BME280;53703;50.326;19.122;2023-02-11T06:52:46;99822.79;;;15.44;40.39
66801;BME280;53703;50.326;19.122;2023-02-11T06:55:40;99826.64;;;15.44;40.37
66801;BME280;53703;50.326;19.122;2023-02-11T06:58:34;99831.80;;;15.42;40.46
66801;BME280;53703;50.326;19.122;2023-02-11T07:01:28;99832.57;;;15.39;40.40
66801;BME280;53703;50.326;19.122;2023-02-11T07:04:22;99838.71;;;15.46;40.13
66801;BME280;53703;50.326;19.122;2023-02-11T07:07:16;99831.14;;;15.51;39.83
66801;BME280;53703;50.326;19.122;2023-02-11T07:09:49;99829.65;;;15.48;39.89
66801;BME280;53703;50.326;19.122;2023-02-11T07:12:43;99822.40;;;15.47;39.88
66801;BME280;53703;50.326;19.122;2023-02-11T07:15:17;99819.85;;;15.51;40.22
66801;BME280;53703;50.326;19.122;2023-02-11T07:18:11;99817.40;;;15.67;40.19
66801;BME280;53703;50.326;19.122;2023-02-11T07:21:09;99821.73;;;15.71;39.91
66801;BME280;53703;50.326;19.122;2023-02-11T07:24:06;99824.38;;;15.80;39.94
66801;BME280;53703;50.326;19.122;2023-02-11T07:27:02;99829.54;;;15.78;40.46
66801;BME280;53703;50.326;19.122;2023-02-11T07:29:56;99828.96;;;15.82;40.42
66801;BME280;53703;50.326;19.122;2023-02-11T07:32:50;99821.83;;;15.81;39.43
66801;BME280;53703;50.326;19.122;2023-02-11T07:35:44;99827.27;;;15.92;39.67
66801;BME280;53703;50.326;19.122;2023-02-11T07:38:38;99824.27;;;15.92;39.81
66801;BME280;53703;50.326;19.122;2023-02-11T07:41:32;99810.69;;;15.99;39.95
66801;BME280;53703;50.326;19.122;2023-02-11T07:44:29;99802.41;;;16.16;40.16
66801;BME280;53703;50.326;19.122;2023-02-11T07:47:24;99805.99;;;16.36;39.72
66801;BME280;53703;50.326;19.122;2023-02-11T07:50:19;99799.20;;;16.73;38.88
66801;BME280;53703;50.326;19.122;2023-02-11T07:53:12;99794.09;;;17.28;39.67
66801;BME280;53703;50.326;19.122;2023-02-11T07:56:08;99778.86;;;17.64;37.93
66801;BME280;53703;50.326;19.122;2023-02-11T07:59:04;99779.00;;;18.00;36.59
66801;BME280;53703;50.326;19.122;2023-02-11T08:01:58;99787.87;;;16.36;41.86
66801;BME280;53703;50.326;19.122;2023-02-11T08:04:52;99783.64;;;16.20;41.74
66801;BME280;53703;50.326;19.122;2023-02-11T08:07:46;99792.38;;;16.33;41.19
66801;BME280;53703;50.326;19.122;2023-02-11T08:10:40;99790.77;;;16.13;41.12
66801;BME280;53703;50.326;19.122;2023-02-11T08:13:34;99792.46;;;14.00;39.28
66801;BME280;53703;50.326;19.122;2023-02-11T08:16:30;99793.83;;;11.76;39.66
66801;BME280;53703;50.326;19.122;2023-02-11T08:19:25;99787.31;;;13.42;40.88
66801;BME280;53703;50.326;19.122;2023-02-11T08:22:19;99792.11;;;15.03;38.81
66801;BME280;53703;50.326;19.122;2023-02-11T08:25:13;99802.82;;;15.41;38.48
66801;BME280;53703;50.326;19.122;2023-02-11T08:28:07;99809.00;;;15.49;39.01
66801;BME280;53703;50.326;19.122;2023-02-11T08:31:06;99802.06;;;15.50;40.52
66801;BME280;53703;50.326;19.122;2023-02-11T08:34:01;99800.05;;;15.52;41.62
66801;BME280;53703;50.326;19.122;2023-02-11T08:36:55;99793.50;;;15.51;41.04
66801;BME280;53703;50.326;19.122;2023-02-11T08:39:49;99796.47;;;15.27;42.32
66801;BME280;53703;50.326;19.122;2023-02-11T08:42:42;99795.01;;;15.41;41.47
66801;BME280;53703;50.326;19.122;2023-02-11T08:45:37;99791.31;;;15.45;41.47
66801;BME280;53703;50.326;19.122;2023-02-11T08:48:31;99788.45;;;15.38;41.09
66801;BME280;53703;50.326;19.122;2023-02-11T08:51:28;99787.48;;;15.31;41.04
66801;BME280;53703;50.326;19.122;2023-02-11T08:54:23;99786.91;;;15.27;41.21
66801;BME280;53703;50.326;19.122;2023-02-11T08:57:16;99787.74;;;15.26;41.00
66801;BME280;53703;50.326;19.122;2023-02-11T09:00:13;99785.03;;;15.24;41.04
66801;BME280;53703;50.326;19.122;2023-02-11T09:03:07;99782.00;;;15.27;41.18
66801;BME280;53703;50.326;19.122;2023-02-11T09:06:05;99790.86;;;15.22;41.14
66801;BME280;53703;50.326;19.122;2023-02-11T09:08:59;99797.81;;;15.21;40.85
66801;BME280;53703;50.326;19.122;2023-02-11T09:11:53;99799.23;;;15.21;41.11
66801;BME280;53703;50.326;19.122;2023-02-11T09:14:48;99799.39;;;15.18;40.99
66801;BME280;53703;50.326;19.122;2023-02-11T09:17:42;99802.20;;;15.21;40.78
66801;BME280;53703;50.326;19.122;2023-02-11T09:20:36;99803.31;;;15.17;40.84
66801;BME280;53703;50.326;19.122;2023-02-11T09:23:30;99802.91;;;15.18;40.50
66801;BME280;53703;50.326;19.122;2023-02-11T09:26:28;99806.90;;;15.16;40.80
66801;BME280;53703;50.326;19.122;2023-02-11T09:29:22;99814.03;;;15.18;40.41
66801;BME280;53703;50.326;19.122;2023-02-11T09:32:16;99815.25;;;15.20;41.08
66801;BME280;53703;50.326;19.122;2023-02-11T09:35:06;99821.21;;;15.22;41.31
66801;BME280;53703;50.326;19.122;2023-02-11T09:38:00;99828.64;;;15.21;40.35
66801;BME280;53703;50.326;19.122;2023-02-11T09:40:54;99826.48;;;15.19;40.32
66801;BME280;53703;50.326;19.122;2023-02-11T09:43:48;99816.20;;;15.15;40.19
66801;BME280;53703;50.326;19.122;2023-02-11T09:46:57;99806.80;;;15.16;40.37
66801;BME280;53703;50.326;19.122;2023-02-11T09:49:56;99797.55;;;15.10;40.34
66801;BME280;53703;50.326;19.122;2023-02-11T09:52:57;99791.27;;;15.11;40.18
66801;BME280;53703;50.326;19.122;2023-02-11T09:55:55;99795.23;;;15.14;40.08
66801;BME280;53703;50.326;19.122;2023-02-11T09:58:49;99790.94;;;15.13;40.08
66801;BME280;53703;50.326;19.122;2023-02-11T10:01:47;99785.86;;;15.05;40.44
66801;BME280;53703;50.326;19.122;2023-02-11T10:05:28;99782.27;;;15.06;40.23
66801;BME280;53703;50.326;19.122;2023-02-11T10:08:37;99787.81;;;15.04;40.09
66801;BME280;53703;50.326;19.122;2023-02-11T10:11:45;99784.25;;;15.03;40.52
66801;BME280;53703;50.326;19.122;2023-02-11T10:15:13;99774.67;;;15.10;40.53
66801;BME280;53703;50.326;19.122;2023-02-11T10:18:40;99769.96;;;15.03;40.25
66801;BME280;53703;50.326;19.122;2023-02-11T10:21:46;99757.79;;;14.97;40.49
66801;BME280;53703;50.326;19.122;2023-02-11T10:24:49;99744.17;;;15.00;40.78
66801;BME280;53703;50.326;19.122;2023-02-11T10:27:44;99737.66;;;15.04;40.88
66801;BME280;53703;50.326;19.122;2023-02-11T10:30:45;99720.52;;;15.14;40.32
66801;BME280;53703;50.326;19.122;2023-02-11T10:33:30;99701.73;;;15.17;40.11
66801;BME280;53703;50.326;19.122;2023-02-11T10:36:30;99688.09;;;15.06;40.08
66801;BME280;53703;50.326;19.122;2023-02-11T10:39:15;99682.61;;;14.93;40.41
66801;BME280;53703;50.326;19.122;2023-02-11T10:41:58;99670.84;;;14.91;40.33
66801;BME280;53703;50.326;19.122;2023-02-11T10:45:01;99648.95;;;14.91;40.39
66801;BME280;53703;50.326;19.122;2023-02-11T10:47:57;99642.60;;;14.89;40.32
66801;BME280;53703;50.326;19.122;2023-02-11T10:51:21;99633.46;;;14.91;40.45
66801;BME280;53703;50.326;19.122;2023-02-11T10:54:18;99623.96;;;14.89;40.19
66801;BME280;53703;50.326;19.122;2023-02-11T10:57:19;99633.38;;;14.98;40.87
66801;BME280;53703;50.326;19.122;2023-02-11T11:00:29;99629.55;;;14.90;40.54
66801;BME280;53703;50.326;19.122;2023-02-11T11:03:05;99638.98;;;14.88;40.82
66801;BME280;53703;50.326;19.122;2023-02-11T11:06:01;99655.88;;;14.87;40.49
66801;BME280;53703;50.326;19.122;2023-02-11T11:08:56;99656.27;;;14.90;40.66
66801;BME280;53703;50.326;19.122;2023-02-11T11:11:54;99653.02;;;14.86;40.68
66801;BME280;53703;50.326;19.122;2023-02-11T11:14:55;99647.42;;;14.74;40.60
66801;BME280;53703;50.326;19.122;2023-02-11T11:17:50;99650.96;;;14.72;40.61
66801;BME280;53703;50.326;19.122;2023-02-11T11:20:56;99656.35;;;14.69;40.72
66801;BME280;53703;50.326;19.122;2023-02-11T11:23:57;99652.48;;;14.70;40.85
66801;BME280;53703;50.326;19.122;2023-02-11T11:26:53;99657.83;;;14.77;40.21
66801;BME280;53703;50.326;19.122;2023-02-11T11:29:50;99654.33;;;14.83;40.72
66801;BME280;53703;50.326;19.122;2023-02-11T11:32:45;99650.21;;;14.96;40.95
66801;BME280;53703;50.326;19.122;2023-02-11T11:35:39;99658.06;;;15.00;41.10
66801;BME280;53703;50.326;19.122;2023-02-11T11:38:35;99648.95;;;15.06;41.35
66801;BME280;53703;50.326;19.122;2023-02-11T11:41:32;99647.20;;;14.96;42.54
66801;BME280;53703;50.326;19.122;2023-02-11T11:44:30;99643.33;;;14.93;42.67
66801;BME280;53703;50.326;19.122;2023-02-11T11:47:40;99632.59;;;14.86;42.47
66801;BME280;53703;50.326;19.122;2023-02-11T11:50:40;99631.58;;;14.82;42.68
66801;BME280;53703;50.326;19.122;2023-02-11T11:53:42;99639.45;;;14.84;42.01
66801;BME280;53703;50.326;19.122;2023-02-11T11:56:44;99646.01;;;14.86;41.68
66801;BME280;53703;50.326;19.122;2023-02-11T11:59:40;99659.33;;;14.85;41.81
66801;BME280;53703;50.326;19.122;2023-02-11T12:03:16;99659.69;;;14.83;41.92
66801;BME280;53703;50.326;19.122;2023-02-11T12:06:29;99662.96;;;14.84;41.86
66801;BME280;53703;50.326;19.122;2023-02-11T12:09:19;99655.92;;;14.85;41.22
66801;BME280;53703;50.326;19.122;2023-02-11T12:12:28;99645.60;;;14.87;41.18
66801;BME280;53703;50.326;19.122;2023-02-11T12:15:32;99651.86;;;14.93;41.37
66801;BME280;53703;50.326;19.122;2023-02-11T12:18:48;99655.13;;;14.83;40.91
66801;BME280;53703;50.326;19.122;2023-02-11T12:21:51;99657.40;;;14.79;41.29
66801;BME280;53703;50.326;19.122;2023-02-11T12:25:06;99650.84;;;14.86;41.56
66801;BME280;53703;50.326;19.122;2023-02-11T12:28:18;99647.52;;;14.96;41.35
66801;BME280;53703;50.326;19.122;2023-02-11T12:31:43;99643.66;;;15.17;41.73
66801;BME280;53703;50.326;19.122;2023-02-11T12:35:04;99644.18;;;15.08;42.92
66801;BME280;53703;50.326;19.122;2023-02-11T12:38:47;99633.70;;;15.00;43.45
66801;BME280;53703;50.326;19.122;2023-02-11T12:42:01;99610.63;;;15.00;42.67
66801;BME280;53703;50.326;19.122;2023-02-11T12:45:26;99604.66;;;15.06;42.48
66801;BME280;53703;50.326;19.122;2023-02-11T12:48:20;99579.33;;;15.04;42.53
66801;BME280;53703;50.326;19.122;2023-02-11T12:51:28;99583.06;;;15.03;42.91
66801;BME280;53703;50.326;19.122;2023-02-11T12:54:30;99582.44;;;15.02;42.87
66801;BME280;53703;50.326;19.122;2023-02-11T12:57:28;99568.55;;;14.98;42.44
66801;BME280;53703;50.326;19.122;2023-02-11T13:00:16;99579.45;;;15.03;42.03
66801;BME280;53703;50.326;19.122;2023-02-11T13:03:20;99592.00;;;15.10;41.96
66801;BME280;53703;50.326;19.122;2023-02-11T13:06:19;99601.52;;;15.07;41.69
66801;BME280;53703;50.326;19.122;2023-02-11T13:09:19;99599.42;;;15.05;41.69
66801;BME280;53703;50.326;19.122;2023-02-11T13:12:16;99581.80;;;15.06;41.38
66801;BME280;53703;50.326;19.122;2023-02-11T13:15:28;99576.66;;;15.15;41.42
66801;BME280;53703;50.326;19.122;2023-02-11T13:18:38;99575.34;;;15.10;41.23
66801;BME280;53703;50.326;19.122;2023-02-11T13:21:55;99568.88;;;15.14;41.44
66801;BME280;53703;50.326;19.122;2023-02-11T13:24:57;99566.55;;;15.13;40.91
66801;BME280;53703;50.326;19.122;2023-02-11T13:27:50;99560.02;;;15.14;40.97
66801;BME280;53703;50.326;19.122;2023-02-11T13:30:51;99542.30;;;15.32;41.12
66801;BME280;53703;50.326;19.122;2023-02-11T13:33:54;99504.73;;;15.16;41.09
66801;BME280;53703;50.326;19.122;2023-02-11T13:36:54;99474.55;;;15.41;40.86
66801;BME280;53703;50.326;19.122;2023-02-11T13:40:00;99483.16;;;15.51;40.54
66801;BME280;53703;50.326;19.122;2023-02-11T13:42:56;99477.45;;;15.44;40.82
66801;BME280;53703;50.326;19.122;2023-02-11T13:45:52;99487.48;;;15.43;40.39
66801;BME280;53703;50.326;19.122;2023-02-11T13:48:52;99495.20;;;15.45;40.28
66801;BME280;53703;50.326;19.122;2023-02-11T13:51:43;99495.93;;;15.49;40.01
66801;BME280;53703;50.326;19.122;2023-02-11T13:54:39;99502.10;;;15.56;39.94
66801;BME280;53703;50.326;19.122;2023-02-11T13:57:40;99514.73;;;15.62;39.76
66801;BME280;53703;50.326;19.122;2023-02-11T14:00:51;99520.31;;;15.70;39.70
66801;BME280;53703;50.326;19.122;2023-02-11T14:04:17;99538.68;;;15.73;39.66
66801;BME280;53703;50.326;19.122;2023-02-11T14:07:32;99546.34;;;15.79;39.53
66801;BME280;53703;50.326;19.122;2023-02-11T14:10:54;99547.23;;;15.81;39.54
66801;BME280;53703;50.326;19.122;2023-02-11T14:14:15;99547.64;;;15.89;39.59
66801;BME280;53703;50.326;19.122;2023-02-11T14:17:30;99563.21;;;15.98;39.56
66801;BME280;53703;50.326;19.122;2023-02-11T14:20:42;99566.20;;;15.95;39.39
66801;BME280;53703;50.326;19.122;2023-02-11T14:23:36;99572.42;;;16.00;39.29
66801;BME280;53703;50.326;19.122;2023-02-11T14:26:44;99570.13;;;16.01;39.28
66801;BME280;53703;50.326;19.122;2023-02-11T14:29:52;99561.69;;;16.04;39.18
66801;BME280;53703;50.326;19.122;2023-02-11T14:32:54;99568.80;;;16.05;39.24
66801;BME280;53703;50.326;19.122;2023-02-11T14:36:06;99575.96;;;16.12;39.12
66801;BME280;53703;50.326;19.122;2023-02-11T14:39:12;99581.01;;;16.11;39.55
66801;BME280;53703;50.326;19.122;2023-02-11T14:42:16;99578.79;;;16.18;39.60
66801;BME280;53703;50.326;19.122;2023-02-11T14:45:17;99568.98;;;16.35;39.66
66801;BME280;53703;50.326;19.122;2023-02-11T14:48:17;99569.07;;;16.23;39.73
66801;BME280;53703;50.326;19.122;2023-02-11T14:51:14;99563.41;;;16.38;39.53
66801;BME280;53703;50.326;19.122;2023-02-11T14:54:15;99563.16;;;16.39;40.75
66801;BME280;53703;50.326;19.122;2023-02-11T14:57:14;99571.11;;;16.52;40.42
66801;BME280;53703;50.326;19.122;2023-02-11T15:00:20;99576.17;;;16.60;39.82
66801;BME280;53703;50.326;19.122;2023-02-11T15:03:30;99581.31;;;16.73;40.02
66801;BME280;53703;50.326;19.122;2023-02-11T15:06:29;99583.19;;;16.75;41.35
66801;BME280;53703;50.326;19.122;2023-02-11T15:09:19;99583.02;;;16.79;41.78
66801;BME280;53703;50.326;19.122;2023-02-11T15:11:59;99589.70;;;16.81;42.76
66801;BME280;53703;50.326;19.122;2023-02-11T15:14:36;99595.48;;;16.93;41.85
66801;BME280;53703;50.326;19.122;2023-02-11T15:17:33;99588.17;;;16.95;42.47
66801;BME280;53703;50.326;19.122;2023-02-11T15:20:30;99586.79;;;16.98;42.08
66801;BME280;53703;50.326;19.122;2023-02-11T15:23:26;99586.09;;;16.94;43.12
66801;BME280;53703;50.326;19.122;2023-02-11T15:26:21;99591.98;;;16.94;44.46
66801;BME280;53703;50.326;19.122;2023-02-11T15:29:18;99598.27;;;17.00;43.11